Airport View

Enter AWOS ICAO identifier for current METAR.

ex. KFNL

KAQR 310255Z AUTO 00000KT 10SM CLR 21/17 A3012 RMK AO2 6//// T02090167 PNO

31 May 2020 03:08

Frequency: 121.125

Phone: 580-889-6924

Other Area AWOS: KDUA - KMLC - KADH - KHHW

TAF KMLC 302320Z 3100/3124 06004KT P6SM SKC FM311500 13007KT P6SM FEW120